Time;durP1;ratioP1;P1;durP2;ratioP2;P2;SDS_P1;SDS_P2;PMS_P1;PMS_P2;Temp;Humidity;BMP_temperature;BMP_pressure;BME280_temperature;BME280_humidity;BME280_pressure;Samples;Min_cycle;Max_cycle;Signal;HPM_P1;HPM_P2
2021/04/04 00:01:30;;;;;;;33.45;6.13;;;8.40;83.00;;;;;;4992786;28;20100;-80
2021/04/04 00:03:56;;;;;;;29.08;6.00;;;8.50;82.70;;;;;;4991953;28;20031;-79
2021/04/04 00:06:22;;;;;;;22.30;5.03;;;8.20;83.00;;;;;;4991301;28;20034;-80
2021/04/04 00:08:47;;;;;;;26.40;5.50;;;8.30;83.10;;;;;;4992776;28;20022;-79
2021/04/04 00:11:13;;;;;;;21.92;5.63;;;8.40;83.40;;;;;;4994116;28;20053;-80
2021/04/04 00:13:40;;;;;;;23.77;5.57;;;8.50;82.60;;;;;;4992870;28;20165;-78
2021/04/04 00:16:05;;;;;;;21.77;6.03;;;8.40;82.30;;;;;;4991033;28;20096;-80
2021/04/04 00:18:31;;;;;;;28.63;5.60;;;8.50;82.20;;;;;;4991205;28;20053;-80
2021/04/04 00:20:57;;;;;;;22.83;5.57;;;8.50;82.40;;;;;;4991794;28;20088;-79
2021/04/04 00:23:22;;;;;;;30.42;5.97;;;8.50;82.70;;;;;;4994102;28;20088;-78
2021/04/04 00:25:48;;;;;;;27.25;5.97;;;8.50;82.20;;;;;;4992163;28;20039;-77
2021/04/04 00:28:14;;;;;;;25.30;4.93;;;8.60;82.20;;;;;;4991092;28;20089;-78
2021/04/04 00:30:39;;;;;;;36.65;5.32;;;8.50;82.30;;;;;;4992100;28;20038;-78
2021/04/04 00:33:05;;;;;;;29.67;5.40;;;8.40;82.60;;;;;;4990993;28;20368;-78
2021/04/04 00:35:31;;;;;;;33.45;7.18;;;8.30;82.70;;;;;;4992980;28;20049;-79
2021/04/04 00:37:57;;;;;;;30.50;5.68;;;8.30;83.00;;;;;;4991089;28;20095;-78
2021/04/04 00:40:27;;;;;;;32.88;5.18;;;8.20;83.10;;;;;;4990812;28;20102;-79
2021/04/04 00:42:53;;;;;;;18.55;4.95;;;8.20;83.10;;;;;;4990583;28;20515;-80
2021/04/04 00:45:24;;;;;;;20.73;4.90;;;8.30;83.40;;;;;;4992141;28;20513;-80
2021/04/04 00:47:50;;;;;;;37.28;5.53;;;8.50;83.30;;;;;;4990609;28;20145;-78
2021/04/04 00:50:18;;;;;;;28.05;5.82;;;8.40;83.20;;;;;;4993226;28;20030;-78
2021/04/04 00:52:44;;;;;;;23.43;5.30;;;8.50;83.10;;;;;;4990785;28;20035;-79
2021/04/04 00:55:12;;;;;;;29.25;4.97;;;8.40;83.20;;;;;;4990699;28;20291;-78
2021/04/04 00:57:40;;;;;;;26.27;5.87;;;8.40;83.40;;;;;;4991697;28;20030;-80
2021/04/04 01:00:11;;;;;;;23.52;5.03;;;8.40;83.50;;;;;;4991350;28;20480;-79
2021/04/04 01:02:37;;;;;;;22.67;5.38;;;8.40;83.40;;;;;;4993148;28;20356;-79
2021/04/04 01:05:08;;;;;;;36.08;5.75;;;8.30;83.60;;;;;;4990397;28;20074;-79
2021/04/04 01:07:34;;;;;;;28.27;5.03;;;8.30;84.00;;;;;;4990909;28;20034;-79
2021/04/04 01:10:06;;;;;;;20.00;5.53;;;8.50;83.30;;;;;;4990474;28;20452;-78
2021/04/04 01:12:47;;;;;;;21.98;5.78;;;8.50;83.10;;;;;;4991575;28;20334;-78
2021/04/04 01:15:21;;;;;;;23.75;5.25;;;8.50;83.60;;;;;;4991554;28;20041;-78
2021/04/04 01:17:49;;;;;;;30.95;6.35;;;8.50;83.70;;;;;;4991167;28;20058;-78
2021/04/04 01:20:27;;;;;;;26.05;5.53;;;8.40;83.80;;;;;;4992531;28;20401;-78
2021/04/04 01:22:53;;;;;;;;;;;8.50;83.50;;;;;;4990052;28;20031;-78
2021/04/04 01:25:34;;;;;;;24.45;5.25;;;8.60;83.80;;;;;;4991034;28;20577;-80
2021/04/04 01:28:08;;;;;;;19.40;4.97;;;8.60;83.70;;;;;;4991942;28;20097;-80
2021/04/04 01:30:36;;;;;;;26.13;5.07;;;8.70;83.20;;;;;;4990768;28;20040;-81
2021/04/04 01:33:03;;;;;;;23.38;4.43;;;8.80;83.30;;;;;;4990963;28;20452;-80
2021/04/04 01:35:34;;;;;;;16.27;5.03;;;8.90;83.50;;;;;;4991808;28;20042;-80
2021/04/04 01:38:01;;;;;;;24.10;5.28;;;8.50;84.00;;;;;;4990756;28;20034;-80
2021/04/04 01:40:31;;;;;;;18.80;5.18;;;8.40;84.30;;;;;;4991067;28;20038;-79
2021/04/04 01:43:01;;;;;;;28.80;5.25;;;8.60;84.00;;;;;;4990100;28;20408;-78
2021/04/04 01:45:27;;;;;;;23.30;5.93;;;8.70;83.70;;;;;;4989754;28;20027;-78
2021/04/04 01:47:54;;;;;;;22.80;4.75;;;8.70;83.70;;;;;;4991022;28;20037;-79
2021/04/04 01:50:20;;;;;;;21.85;4.30;;;8.80;83.50;;;;;;4991865;28;20014;-80
2021/04/04 01:52:49;;;;;;;34.63;5.25;;;8.70;83.30;;;;;;4991470;28;20400;-79
2021/04/04 01:55:15;;;;;;;27.20;4.32;;;8.80;83.30;;;;;;4989354;28;20061;-80
2021/04/04 01:57:41;;;;;;;26.42;4.25;;;9.00;83.20;;;;;;4989482;28;20034;-78
2021/04/04 02:00:19;;;;;;;21.23;4.10;;;8.90;82.90;;;;;;4990734;28;20049;-79
2021/04/04 02:02:47;;;;;;;20.58;4.22;;;9.00;82.60;;;;;;4990593;28;20588;-78
2021/04/04 02:05:14;;;;;;;24.52;4.70;;;9.00;82.80;;;;;;4991230;28;20033;-80
2021/04/04 02:07:46;;;;;;;19.77;4.00;;;8.90;82.60;;;;;;4990473;28;20368;-78
2021/04/04 02:10:18;;;;;;;24.08;3.63;;;8.90;82.70;;;;;;4990409;28;20103;-80
2021/04/04 02:12:45;;;;;;;16.85;4.10;;;9.00;82.80;;;;;;4990368;28;20048;-80
2021/04/04 02:15:12;;;;;;;22.73;4.30;;;9.00;82.70;;;;;;4990031;28;20042;-79
2021/04/04 02:17:39;;;;;;;23.88;4.55;;;8.80;83.00;;;;;;4990994;28;20360;-81
2021/04/04 02:20:12;;;;;;;28.08;4.95;;;8.80;82.80;;;;;;4989751;28;20062;-79
2021/04/04 02:22:39;;;;;;;28.20;4.95;;;8.70;83.40;;;;;;4988246;28;20054;-79
2021/04/04 02:25:07;;;;;;;18.30;4.22;;;8.80;83.70;;;;;;4989403;28;20046;-79
2021/04/04 02:27:33;;;;;;;30.67;6.13;;;8.70;83.70;;;;;;4988417;28;20030;-79
2021/04/04 02:29:58;;;;;;;20.88;5.22;;;8.70;83.70;;;;;;4988443;28;20033;-80
2021/04/04 02:32:26;;;;;;;26.38;5.28;;;8.70;84.00;;;;;;4990745;28;20403;-79
2021/04/04 02:34:56;;;;;;;18.10;4.80;;;8.70;84.00;;;;;;4988192;28;20038;-78
2021/04/04 02:37:22;;;;;;;26.23;6.32;;;8.70;84.20;;;;;;4988171;28;20053;-79
2021/04/04 02:40:01;;;;;;;33.22;5.18;;;8.60;84.40;;;;;;4988996;28;20045;-80
2021/04/04 02:42:28;;;;;;;22.55;5.35;;;8.60;84.80;;;;;;4989641;28;20447;-79
2021/04/04 02:44:58;;;;;;;22.50;5.35;;;8.50;84.80;;;;;;4989395;28;20030;-78
2021/04/04 02:47:34;;;;;;;17.98;4.82;;;8.40;85.30;;;;;;4990838;28;20033;-80
2021/04/04 02:50:01;;;;;;;25.00;6.65;;;8.50;85.40;;;;;;4988066;28;20038;-80
2021/04/04 02:52:31;;;;;;;22.60;5.70;;;8.40;85.70;;;;;;4988114;28;20039;-79
2021/04/04 02:54:59;;;;;;;19.83;4.80;;;8.30;86.30;;;;;;4988112;28;20030;-80
2021/04/04 02:57:28;;;;;;;27.10;5.85;;;8.30;87.60;;;;;;4991665;28;20042;-80
2021/04/04 03:00:00;;;;;;;24.83;5.93;;;8.20;87.00;;;;;;4991393;28;20030;-81
2021/04/04 03:02:28;;;;;;;25.88;6.00;;;8.20;88.00;;;;;;4993024;28;20029;-80
2021/04/04 03:04:56;;;;;;;42.88;6.50;;;8.20;87.10;;;;;;4990969;28;20027;-81
2021/04/04 03:07:27;;;;;;;40.35;6.47;;;8.20;87.60;;;;;;4991831;28;20097;-81
2021/04/04 03:09:54;;;;;;;25.73;5.40;;;8.30;87.40;;;;;;4992563;28;20126;-80
2021/04/04 03:12:22;;;;;;;23.55;5.63;;;8.20;87.40;;;;;;4992023;28;20064;-80
2021/04/04 03:14:49;;;;;;;21.85;5.93;;;8.10;88.10;;;;;;4992558;28;20018;-81
2021/04/04 03:17:17;;;;;;;31.42;5.85;;;8.10;88.00;;;;;;4994181;28;20392;-79
2021/04/04 03:19:45;;;;;;;27.38;5.85;;;8.30;87.40;;;;;;4971043;28;599047;-79
2021/04/04 03:22:11;;;;;;;24.67;5.05;;;8.30;87.30;;;;;;4992358;28;20042;-81
2021/04/04 03:24:38;;;;;;;26.42;5.97;;;8.20;87.50;;;;;;4992721;28;20485;-79
2021/04/04 03:27:05;;;;;;;36.45;6.30;;;8.30;87.50;;;;;;4992555;28;20034;-79
2021/04/04 03:29:33;;;;;;;27.65;5.57;;;8.10;88.00;;;;;;4993635;28;20049;-80
2021/04/04 03:31:59;;;;;;;24.63;4.70;;;8.00;88.10;;;;;;4993641;28;20038;-79
2021/04/04 03:34:26;;;;;;;21.83;5.28;;;8.10;88.20;;;;;;4992254;28;20125;-78
2021/04/04 03:36:54;;;;;;;25.98;5.35;;;8.20;88.20;;;;;;4992920;28;20046;-78
2021/04/04 03:39:21;;;;;;;22.33;5.63;;;8.20;88.10;;;;;;4993035;28;20049;-84
2021/04/04 03:41:50;;;;;;;25.10;6.07;;;8.20;87.80;;;;;;4992992;28;20141;-79
2021/04/04 03:44:19;;;;;;;28.55;6.53;;;8.30;87.50;;;;;;4994478;28;20034;-78
2021/04/04 03:46:46;;;;;;;29.65;5.40;;;8.50;87.20;;;;;;4992803;28;20038;-80
2021/04/04 03:49:13;;;;;;;30.52;5.65;;;8.40;87.00;;;;;;4992675;28;20559;-80
2021/04/04 03:51:39;;;;;;;25.25;6.00;;;8.50;87.60;;;;;;4991978;28;20042;-80
2021/04/04 03:54:08;;;;;;;26.45;5.45;;;8.50;87.00;;;;;;4991309;28;20412;-80
2021/04/04 03:56:35;;;;;;;20.98;5.25;;;8.30;87.10;;;;;;4994768;28;20037;-80
2021/04/04 03:59:06;;;;;;;29.65;6.07;;;8.40;87.10;;;;;;4992877;28;20045;-79
2021/04/04 04:01:34;;;;;;;23.20;5.70;;;8.40;87.20;;;;;;4992821;28;20039;-79
2021/04/04 04:04:02;;;;;;;24.73;4.85;;;8.40;87.00;;;;;;4992894;28;20066;-79
2021/04/04 04:06:33;;;;;;;;;;;8.40;87.10;;;;;;4993389;28;20037;-79
2021/04/04 04:09:02;;;;;;;25.65;6.03;;;8.50;87.30;;;;;;4992203;28;20243;-78
2021/04/04 04:11:28;;;;;;;22.65;5.13;;;8.50;87.00;;;;;;4993816;28;20030;-79
2021/04/04 04:13:55;;;;;;;23.00;5.80;;;8.60;87.60;;;;;;4992526;28;20101;-78
2021/04/04 04:16:21;;;;;;;18.40;5.60;;;8.50;87.10;;;;;;4992419;28;20035;-79
2021/04/04 04:18:47;;;;;;;25.17;5.95;;;8.30;87.60;;;;;;4992130;28;20050;-78
2021/04/04 04:21:13;;;;;;;25.23;5.53;;;8.30;87.70;;;;;;4991447;28;20026;-79
2021/04/04 04:23:40;;;;;;;23.75;5.18;;;8.30;88.10;;;;;;4994338;28;20026;-79
2021/04/04 04:26:10;;;;;;;38.00;6.55;;;8.40;88.10;;;;;;4992067;28;20038;-80
2021/04/04 04:28:36;;;;;;;26.30;5.82;;;8.40;87.90;;;;;;4992554;28;20046;-79
2021/04/04 04:31:08;;;;;;;20.65;5.88;;;8.40;88.10;;;;;;4994803;28;20054;-78
2021/04/04 04:33:34;;;;;;;24.35;5.60;;;8.20;88.60;;;;;;4991014;28;20030;-78
2021/04/04 04:36:01;;;;;;;28.75;5.70;;;8.30;88.70;;;;;;4992668;28;20026;-78
2021/04/04 04:38:29;;;;;;;21.35;5.32;;;8.40;88.50;;;;;;4992941;28;20141;-78
2021/04/04 04:40:55;;;;;;;20.25;5.75;;;8.50;88.20;;;;;;4991086;28;20455;-79
2021/04/04 04:43:22;;;;;;;19.70;5.28;;;8.20;89.00;;;;;;4992027;28;20054;-77
2021/04/04 04:45:51;;;;;;;20.92;5.35;;;8.20;89.50;;;;;;4991872;28;20140;-78
2021/04/04 04:48:16;;;;;;;21.88;5.35;;;8.20;89.20;;;;;;4991715;28;20034;-78
2021/04/04 04:50:43;;;;;;;18.55;5.03;;;8.10;89.50;;;;;;4993249;28;20032;-79
2021/04/04 04:53:09;;;;;;;18.13;5.03;;;8.10;89.70;;;;;;4991672;28;20049;-78
2021/04/04 04:55:36;;;;;;;30.27;6.60;;;8.00;90.00;;;;;;4991893;28;20109;-78
2021/04/04 04:58:03;;;;;;;23.50;6.00;;;8.00;90.10;;;;;;4991656;28;20110;-78
2021/04/04 05:00:30;;;;;;;23.23;4.80;;;7.90;90.30;;;;;;4991623;28;20368;-78
2021/04/04 05:02:56;;;;;;;19.42;5.40;;;7.80;90.40;;;;;;4991488;28;20392;-79
2021/04/04 05:05:22;;;;;;;22.90;5.30;;;7.90;90.40;;;;;;4992196;28;20026;-79
2021/04/04 05:07:48;;;;;;;22.30;5.22;;;8.00;90.10;;;;;;4991409;28;20342;-78
2021/04/04 05:10:14;;;;;;;23.90;5.05;;;7.90;90.30;;;;;;4991265;28;20039;-78
2021/04/04 05:12:52;;;;;;;23.15;5.30;;;8.00;90.50;;;;;;4990294;28;20115;-78
2021/04/04 05:15:19;;;;;;;22.25;4.78;;;8.00;90.10;;;;;;4990169;28;20035;-79
2021/04/04 05:17:45;;;;;;;23.25;5.22;;;8.00;90.00;;;;;;4991500;28;20689;-77
2021/04/04 05:20:12;;;;;;;22.45;5.10;;;8.10;89.80;;;;;;4991793;28;20046;-80
2021/04/04 05:22:38;;;;;;;24.05;4.93;;;8.00;89.80;;;;;;4991172;28;20062;-78
2021/04/04 05:25:06;;;;;;;21.85;5.72;;;8.10;89.70;;;;;;4991008;28;20037;-78
2021/04/04 05:27:32;;;;;;;26.17;5.47;;;8.10;89.60;;;;;;4991089;28;20033;-79
2021/04/04 05:30:04;;;;;;;20.38;4.97;;;8.00;89.70;;;;;;4991109;28;20476;-79
2021/04/04 05:32:30;;;;;;;27.10;4.90;;;8.00;90.10;;;;;;4992913;28;20092;-79
2021/04/04 05:34:56;;;;;;;24.65;5.55;;;8.10;90.00;;;;;;4990984;28;20074;-78
2021/04/04 05:37:21;;;;;;;27.05;5.18;;;8.20;89.30;;;;;;4990790;28;20069;-79
2021/04/04 05:39:47;;;;;;;25.17;3.90;;;8.20;89.00;;;;;;4990707;28;20038;-79
2021/04/04 05:42:14;;;;;;;24.45;4.10;;;8.20;88.80;;;;;;4990724;28;20430;-78
2021/04/04 05:44:57;;;;;;;18.65;4.53;;;8.30;88.40;;;;;;4992307;28;20070;-79
2021/04/04 05:47:54;;;;;;;24.77;4.80;;;8.20;88.10;;;;;;4989698;28;20030;-78
2021/04/04 05:50:46;;;;;;;22.70;4.50;;;8.20;88.00;;;;;;4990912;28;20437;-78
2021/04/04 05:53:30;;;;;;;16.55;3.75;;;8.20;88.30;;;;;;4989950;28;20096;-80
2021/04/04 05:56:10;;;;;;;17.25;3.80;;;8.30;87.90;;;;;;4989279;28;20460;-73
2021/04/04 05:58:47;;;;;;;15.45;3.25;;;8.20;87.80;;;;;;4990258;28;20132;-79
2021/04/04 06:01:55;;;;;;;20.35;4.05;;;8.40;88.00;;;;;;4990386;28;20030;-75
2021/04/04 06:04:20;;;;;;;22.25;3.80;;;8.40;87.70;;;;;;4989486;28;20038;-85
2021/04/04 06:06:52;;;;;;;22.23;3.50;;;8.30;86.60;;;;;;4990591;28;20062;-81
2021/04/04 06:09:56;;;;;;;14.15;3.38;;;8.20;86.30;;;;;;4990814;28;20069;-84
2021/04/04 06:12:40;;;;;;;24.17;4.18;;;8.10;86.00;;;;;;4990436;28;20034;-74
2021/04/04 06:15:25;;;;;;;24.23;3.72;;;8.20;86.40;;;;;;4989318;28;20046;-73
2021/04/04 06:18:18;;;;;;;20.88;3.20;;;8.30;86.20;;;;;;4988800;28;20033;-80
2021/04/04 06:21:03;;;;;;;23.55;3.58;;;8.30;85.30;;;;;;4988916;28;20057;-75
2021/04/04 06:23:45;;;;;;;11.00;2.65;;;8.50;85.30;;;;;;4990741;28;20082;-74
2021/04/04 06:27:01;;;;;;;13.90;2.70;;;8.60;84.30;;;;;;4989319;28;20034;-75
2021/04/04 06:29:54;;;;;;;25.88;3.13;;;8.50;82.90;;;;;;4972546;28;20372;-71
2021/04/04 06:32:28;;;;;;;21.25;2.92;;;8.40;83.00;;;;;;4990495;28;20053;-71
2021/04/04 06:34:58;;;;;;;17.85;2.72;;;8.40;82.30;;;;;;4990172;28;20496;-75
2021/04/04 06:37:43;;;;;;;28.38;3.55;;;8.30;82.10;;;;;;4988868;28;20131;-73
2021/04/04 06:40:12;;;;;;;17.15;3.45;;;8.30;81.80;;;;;;4989627;28;20069;-75
2021/04/04 06:42:56;;;;;;;14.07;2.83;;;8.20;81.70;;;;;;4988921;28;20042;-75
2021/04/04 06:45:44;;;;;;;17.65;3.05;;;8.40;81.90;;;;;;4989744;28;20397;-74
2021/04/04 06:48:29;;;;;;;;;;;8.50;81.80;;;;;;4989350;28;20058;-75
2021/04/04 06:51:07;;;;;;;17.55;3.15;;;8.50;81.40;;;;;;4988944;28;19909;-75
2021/04/04 06:54:13;;;;;;;18.77;3.55;;;8.60;81.00;;;;;;4990634;28;20113;-77
2021/04/04 06:57:01;;;;;;;21.67;3.45;;;8.60;80.70;;;;;;4988708;28;20445;-78
2021/04/04 06:59:31;;;;;;;;;;;8.40;80.40;;;;;;4989145;28;20053;-74
2021/04/04 07:02:04;;;;;;;20.85;2.88;;;8.40;80.20;;;;;;4988663;28;20035;-79
2021/04/04 07:04:30;;;;;;;15.73;2.78;;;8.40;80.40;;;;;;4989535;28;20046;-73
2021/04/04 07:07:34;;;;;;;16.58;3.00;;;8.40;80.10;;;;;;4989357;28;20330;-72
2021/04/04 07:10:25;;;;;;;23.00;2.97;;;8.50;80.50;;;;;;4989658;28;20095;-75
2021/04/04 07:13:11;;;;;;;15.80;2.90;;;8.50;79.40;;;;;;4988408;28;20096;-75
2021/04/04 07:15:57;;;;;;;15.18;2.95;;;8.60;79.20;;;;;;4989626;28;20034;-76
2021/04/04 07:18:55;;;;;;;13.75;2.50;;;8.60;78.80;;;;;;4989563;28;20046;-73
2021/04/04 07:21:47;;;;;;;24.17;3.28;;;8.70;79.10;;;;;;4989939;28;20104;-75
2021/04/04 07:24:50;;;;;;;14.05;3.45;;;8.70;78.60;;;;;;4988558;28;20476;-74
2021/04/04 07:27:40;;;;;;;24.77;3.60;;;8.60;78.60;;;;;;4989825;28;20094;-79
2021/04/04 07:30:28;;;;;;;15.32;3.13;;;8.60;78.70;;;;;;4989191;28;20057;-73
2021/04/04 07:33:01;;;;;;;12.25;3.78;;;8.60;78.70;;;;;;4988907;28;20054;-73
2021/04/04 07:35:33;;;;;;;13.15;3.17;;;8.60;78.40;;;;;;4991105;28;20026;-73
2021/04/04 07:38:07;;;;;;;16.20;3.45;;;8.60;77.80;;;;;;4989142;28;20038;-72
2021/04/04 07:40:52;;;;;;;17.60;3.40;;;8.60;77.90;;;;;;4989491;28;20046;-73
2021/04/04 07:43:27;;;;;;;24.45;3.83;;;8.70;77.30;;;;;;4991753;28;20045;-73
2021/04/04 07:46:10;;;;;;;14.32;3.17;;;8.90;77.00;;;;;;4993045;28;20525;-74
2021/04/04 07:48:54;;;;;;;25.52;4.07;;;9.00;77.30;;;;;;4992721;28;20164;-71
2021/04/04 07:51:23;;;;;;;16.95;4.10;;;8.90;76.80;;;;;;4992651;28;20034;-71
2021/04/04 07:54:04;;;;;;;17.17;4.40;;;8.80;76.90;;;;;;4992528;28;20122;-73
2021/04/04 07:56:41;;;;;;;16.15;3.33;;;8.80;77.20;;;;;;4994407;28;20026;-72
2021/04/04 07:59:17;;;;;;;19.20;3.97;;;8.60;77.40;;;;;;4991416;28;20034;-75
2021/04/04 08:02:00;;;;;;;13.70;3.30;;;8.60;77.70;;;;;;4992735;28;20035;-74
2021/04/04 08:04:51;;;;;;;12.55;3.65;;;8.70;77.40;;;;;;4992650;28;20096;-75
2021/04/04 08:07:25;;;;;;;12.65;3.10;;;8.80;77.30;;;;;;4991146;28;20038;-76
2021/04/04 08:10:31;;;;;;;11.20;3.55;;;9.00;77.20;;;;;;4992351;28;20043;-77
2021/04/04 08:13:20;;;;;;;16.08;3.72;;;9.00;77.20;;;;;;4981494;28;20043;-74
2021/04/04 08:16:05;;;;;;;15.88;3.70;;;8.80;77.50;;;;;;4992468;28;20031;-78
2021/04/04 08:18:31;;;;;;;27.05;4.03;;;8.60;77.50;;;;;;4992278;28;20707;-81
2021/04/04 08:21:07;;;;;;;12.88;3.30;;;8.70;77.70;;;;;;4991944;28;20042;-80
2021/04/04 08:23:34;;;;;;;23.00;4.07;;;8.60;77.80;;;;;;4992918;28;20022;-81
2021/04/04 08:26:05;;;;;;;13.43;3.10;;;8.60;78.20;;;;;;4992261;28;20111;-81
2021/04/04 08:28:37;;;;;;;12.00;2.85;;;8.60;78.30;;;;;;4991952;28;20031;-73
2021/04/04 08:31:17;;;;;;;14.35;3.90;;;8.60;78.20;;;;;;4992156;28;20030;-74
2021/04/04 08:34:06;;;;;;;14.90;3.30;;;8.80;78.40;;;;;;4992077;28;20097;-75
2021/04/04 08:36:46;;;;;;;15.13;2.95;;;8.70;78.30;;;;;;4991343;28;20113;-76
2021/04/04 08:39:15;;;;;;;17.27;3.70;;;8.80;78.30;;;;;;4990681;28;20061;-73
2021/04/04 08:41:44;;;;;;;13.30;3.65;;;8.70;78.60;;;;;;4993412;28;20036;-74
2021/04/04 08:44:27;;;;;;;7.70;2.70;;;8.80;78.60;;;;;;4992051;28;20050;-77
2021/04/04 08:46:58;;;;;;;15.52;3.13;;;8.80;78.70;;;;;;4991881;28;20046;-74
2021/04/04 08:49:24;;;;;;;14.80;3.20;;;8.90;78.90;;;;;;4992097;28;20050;-74
2021/04/04 08:52:02;;;;;;;14.65;2.90;;;8.80;78.80;;;;;;4991559;28;20136;-77
2021/04/04 08:54:29;;;;;;;13.82;3.22;;;8.80;78.80;;;;;;4990640;28;20031;-77
2021/04/04 08:56:57;;;;;;;8.13;2.78;;;8.90;79.60;;;;;;4990247;28;20161;-77
2021/04/04 08:59:31;;;;;;;11.07;2.60;;;8.90;79.10;;;;;;4993156;28;20057;-78
2021/04/04 09:02:02;;;;;;;8.98;2.53;;;8.90;79.00;;;;;;4991781;28;20066;-76
2021/04/04 09:04:29;;;;;;;8.18;2.25;;;8.80;79.60;;;;;;4990395;28;20030;-79
2021/04/04 09:07:05;;;;;;;13.13;2.80;;;9.00;79.40;;;;;;4991248;28;20030;-76
2021/04/04 09:09:40;;;;;;;6.60;2.47;;;9.10;79.70;;;;;;4991674;28;20085;-80
2021/04/04 09:12:07;;;;;;;10.00;2.53;;;9.00;79.50;;;;;;4991292;28;20468;-72
2021/04/04 09:14:35;;;;;;;10.27;2.65;;;9.10;82.40;;;;;;4993038;28;20033;-78
2021/04/04 09:17:06;;;;;;;14.52;2.88;;;9.40;80.60;;;;;;4991228;28;20044;-78
2021/04/04 09:19:36;;;;;;;13.73;3.17;;;9.50;79.70;;;;;;4989888;28;20265;-74
2021/04/04 09:22:10;;;;;;;10.13;2.95;;;9.50;79.60;;;;;;4991274;28;20277;-79
2021/04/04 09:24:43;;;;;;;7.85;2.63;;;9.50;79.70;;;;;;4991399;28;20132;-80
2021/04/04 09:27:15;;;;;;;10.35;2.38;;;9.50;79.60;;;;;;4990942;28;20054;-74
2021/04/04 09:29:43;;;;;;;5.40;2.20;;;9.50;79.90;;;;;;4991187;28;20045;-74
2021/04/04 09:32:26;;;;;;;13.02;3.03;;;9.30;80.10;;;;;;4990589;28;20034;-75
2021/04/04 09:34:53;;;;;;;10.43;2.05;;;9.30;80.40;;;;;;4989711;28;20052;-78
2021/04/04 09:37:27;;;;;;;10.00;2.08;;;9.30;80.60;;;;;;4989623;28;20395;-76
2021/04/04 09:39:55;;;;;;;8.68;2.10;;;9.30;81.30;;;;;;4989720;28;20046;-77
2021/04/04 09:42:21;;;;;;;7.53;2.17;;;9.40;81.60;;;;;;4990382;28;20034;-78
2021/04/04 09:44:47;;;;;;;5.07;1.90;;;9.50;81.30;;;;;;4990266;28;20032;-79
2021/04/04 09:47:13;;;;;;;8.93;1.60;;;9.30;81.50;;;;;;4992084;28;20069;-75
2021/04/04 09:49:50;;;;;;;4.82;2.00;;;9.30;82.30;;;;;;4990179;28;20034;-75
2021/04/04 09:52:23;;;;;;;7.88;1.65;;;9.40;82.40;;;;;;4989457;28;20039;-76
2021/04/04 09:55:07;;;;;;;4.95;1.33;;;9.50;81.70;;;;;;4990792;28;20165;-75
2021/04/04 09:57:47;;;;;;;8.70;2.17;;;9.70;81.30;;;;;;4990602;28;20030;-76
2021/04/04 10:00:27;;;;;;;6.85;1.98;;;9.60;81.60;;;;;;4990750;28;20042;-75
2021/04/04 10:02:55;;;;;;;5.25;2.17;;;9.70;81.70;;;;;;4990087;28;20022;-78
2021/04/04 10:05:39;;;;;;;7.85;2.22;;;9.80;81.50;;;;;;4991489;28;20050;-77
2021/04/04 10:08:21;;;;;;;6.40;2.30;;;9.70;81.80;;;;;;4990198;28;20073;-75
2021/04/04 10:10:49;;;;;;;6.03;1.73;;;9.40;82.50;;;;;;4990363;28;20092;-79
2021/04/04 10:13:17;;;;;;;4.28;1.65;;;9.40;83.20;;;;;;4990045;28;20105;-77
2021/04/04 10:15:48;;;;;;;3.88;1.90;;;9.40;83.10;;;;;;4989844;28;20089;-73
2021/04/04 10:18:16;;;;;;;5.85;2.10;;;9.20;83.80;;;;;;4989964;28;20119;-75
2021/04/04 10:20:50;;;;;;;8.25;2.10;;;9.30;83.90;;;;;;4990444;28;20068;-79
2021/04/04 10:23:16;;;;;;;4.28;1.80;;;9.50;83.80;;;;;;4989325;28;20077;-77
2021/04/04 10:26:03;;;;;;;8.00;2.00;;;9.50;83.80;;;;;;4990111;28;20042;-76
2021/04/04 10:28:44;;;;;;;4.60;2.40;;;9.30;84.30;;;;;;4990009;28;20074;-74
2021/04/04 10:31:10;;;;;;;8.15;1.80;;;9.30;85.30;;;;;;4990221;28;20046;-76
2021/04/04 10:33:36;;;;;;;8.85;2.10;;;9.30;85.60;;;;;;4990034;28;20096;-77
2021/04/04 10:36:19;;;;;;;6.53;2.30;;;9.30;85.90;;;;;;4990025;28;20401;-73
2021/04/04 10:38:44;;;;;;;6.97;2.30;;;9.50;85.30;;;;;;4990065;28;20029;-73
2021/04/04 10:41:11;;;;;;;6.63;1.75;;;9.40;85.90;;;;;;4989675;28;20035;-70
2021/04/04 10:43:42;;;;;;;5.80;2.03;;;9.40;86.60;;;;;;4989777;28;20042;-71
2021/04/04 10:46:12;;;;;;;5.28;1.60;;;9.40;86.40;;;;;;4989570;28;20046;-76
2021/04/04 10:48:41;;;;;;;7.43;2.35;;;9.50;86.20;;;;;;4989846;28;20045;-74
2021/04/04 10:51:08;;;;;;;6.57;2.45;;;9.40;86.50;;;;;;4989438;28;20049;-75
2021/04/04 10:53:35;;;;;;;5.72;2.05;;;9.40;86.20;;;;;;4991473;28;20022;-72
2021/04/04 10:56:01;;;;;;;9.90;2.22;;;9.40;86.40;;;;;;4988291;28;20113;-73
2021/04/04 10:58:28;;;;;;;5.15;1.90;;;9.40;86.60;;;;;;4989332;28;20364;-72
2021/04/04 11:00:59;;;;;;;6.70;2.25;;;9.40;86.90;;;;;;4989464;28;20031;-73
2021/04/04 11:03:26;;;;;;;8.30;2.03;;;9.40;87.30;;;;;;4989824;28;20543;-75
2021/04/04 11:05:51;;;;;;;3.20;1.98;;;9.40;87.70;;;;;;4989929;28;20527;-76
2021/04/04 11:08:18;;;;;;;6.45;2.35;;;9.40;88.20;;;;;;4991253;28;20046;-75
2021/04/04 11:10:45;;;;;;;7.55;2.50;;;9.40;88.10;;;;;;4989732;28;20069;-76
2021/04/04 11:13:14;;;;;;;5.15;1.90;;;9.40;88.00;;;;;;4989577;28;20034;-79
2021/04/04 11:15:42;;;;;;;9.45;3.10;;;9.50;87.90;;;;;;4989257;28;20812;-78
2021/04/04 11:18:14;;;;;;;6.43;2.58;;;9.70;87.90;;;;;;4990558;28;20035;-80
2021/04/04 11:20:46;;;;;;;6.97;2.53;;;9.60;88.10;;;;;;4995102;28;20042;-80
2021/04/04 11:23:19;;;;;;;8.82;2.75;;;9.80;88.20;;;;;;4992799;28;20030;-76
2021/04/04 11:25:45;;;;;;;6.50;2.65;;;9.80;88.00;;;;;;4993451;28;20043;-75
2021/04/04 11:28:19;;;;;;;13.23;3.03;;;9.40;89.40;;;;;;4992296;28;20035;-72
2021/04/04 11:30:46;;;;;;;9.38;2.65;;;9.30;91.00;;;;;;4993261;28;20038;-72
2021/04/04 11:33:19;;;;;;;10.82;3.13;;;9.40;90.70;;;;;;4992993;28;20359;-73
2021/04/04 11:36:00;;;;;;;12.50;2.65;;;9.20;90.80;;;;;;4993067;28;20045;-76
2021/04/04 11:38:28;;;;;;;8.20;3.65;;;9.10;90.40;;;;;;4994566;28;20037;-76
2021/04/04 11:41:24;;;;;;;15.13;3.72;;;9.30;90.30;;;;;;4993222;28;20404;-71
2021/04/04 11:43:52;;;;;;;8.90;2.78;;;9.30;90.40;;;;;;4987602;28;20031;-70
2021/04/04 11:46:41;;;;;;;9.43;3.25;;;9.20;90.20;;;;;;4992737;28;20375;-72
2021/04/04 11:49:35;;;;;;;9.63;3.53;;;9.20;90.50;;;;;;4991873;28;20038;-70
2021/04/04 11:52:01;;;;;;;9.98;3.00;;;9.30;90.00;;;;;;4992882;28;20121;-70
2021/04/04 11:54:44;;;;;;;7.47;2.67;;;9.20;90.00;;;;;;4992879;28;20137;-72
2021/04/04 11:57:11;;;;;;;9.25;2.97;;;9.30;89.70;;;;;;4992582;28;20037;-72
2021/04/04 11:59:37;;;;;;;12.98;2.97;;;9.40;89.40;;;;;;4993996;28;20034;-72
2021/04/04 12:02:03;;;;;;;7.30;2.60;;;9.30;89.60;;;;;;4992585;28;20030;-70
2021/04/04 12:04:31;;;;;;;10.10;3.05;;;9.50;89.50;;;;;;4991300;28;20114;-74
2021/04/04 12:07:08;;;;;;;6.40;2.55;;;9.40;90.40;;;;;;4992424;28;20121;-71
2021/04/04 12:09:35;;;;;;;7.72;2.70;;;9.50;90.40;;;;;;4992504;28;20034;-73
2021/04/04 12:12:05;;;;;;;8.80;3.42;;;9.60;90.50;;;;;;4990778;28;20117;-75
2021/04/04 12:14:31;;;;;;;7.63;2.85;;;9.50;90.70;;;;;;4993689;28;20022;-74
2021/04/04 12:16:57;;;;;;;6.35;2.72;;;9.40;90.40;;;;;;4992204;28;20081;-72
2021/04/04 12:19:33;;;;;;;14.40;3.03;;;9.50;90.30;;;;;;4991828;28;20129;-74
2021/04/04 12:21:58;;;;;;;7.05;2.97;;;9.60;90.00;;;;;;4992101;28;20068;-72
2021/04/04 12:24:45;;;;;;;8.15;3.45;;;9.70;89.90;;;;;;4992257;28;20200;-72
2021/04/04 12:27:13;;;;;;;5.72;3.13;;;9.70;90.00;;;;;;4992225;28;20031;-71
2021/04/04 12:29:51;;;;;;;8.15;2.90;;;9.80;89.20;;;;;;4993455;28;20077;-72
2021/04/04 12:32:25;;;;;;;6.97;2.85;;;9.90;88.30;;;;;;4991979;28;20046;-73
2021/04/04 12:34:54;;;;;;;5.72;2.92;;;9.90;87.80;;;;;;4991914;28;20034;-71
2021/04/04 12:37:21;;;;;;;6.07;2.55;;;9.70;87.90;;;;;;4991800;28;20042;-72
2021/04/04 12:39:47;;;;;;;12.60;2.65;;;9.90;88.50;;;;;;4991540;28;20053;-72
2021/04/04 12:42:14;;;;;;;10.40;2.88;;;9.90;88.10;;;;;;4990581;28;20042;-73
2021/04/04 12:44:42;;;;;;;6.35;2.70;;;10.00;87.00;;;;;;4992273;28;20031;-73
2021/04/04 12:47:13;;;;;;;7.68;2.80;;;10.00;88.00;;;;;;4990973;28;20046;-71
2021/04/04 12:49:41;;;;;;;4.95;2.42;;;9.60;90.40;;;;;;4992061;28;20042;-71
2021/04/04 12:52:08;;;;;;;7.57;2.50;;;9.60;91.10;;;;;;4990425;28;20049;-72
2021/04/04 12:54:34;;;;;;;6.47;2.33;;;9.70;91.20;;;;;;4990740;28;20112;-73
2021/04/04 12:57:00;;;;;;;8.90;2.67;;;9.70;91.00;;;;;;4992026;28;20027;-72
2021/04/04 12:59:26;;;;;;;3.85;1.98;;;9.70;91.20;;;;;;4993159;28;20036;-71
2021/04/04 13:01:54;;;;;;;13.18;3.67;;;9.70;90.90;;;;;;4991431;28;20113;-71
2021/04/04 13:04:22;;;;;;;8.10;3.63;;;9.60;91.50;;;;;;4988537;28;20368;-70
2021/04/04 13:06:48;;;;;;;8.25;4.10;;;9.40;91.70;;;;;;4992767;28;20034;-70
2021/04/04 13:09:14;;;;;;;9.55;4.07;;;9.30;91.90;;;;;;4992433;28;20471;-71
2021/04/04 13:11:42;;;;;;;11.02;4.28;;;9.50;91.60;;;;;;4994511;28;20033;-72
2021/04/04 13:14:13;;;;;;;14.10;5.20;;;9.30;91.20;;;;;;4991711;28;20040;-71
2021/04/04 13:16:39;;;;;;;12.15;3.85;;;9.40;91.20;;;;;;4992630;28;20035;-72